Time;durP1;ratioP1;P1;durP2;ratioP2;P2;SDS_P1;SDS_P2;PMS_P1;PMS_P2;Temp;Humidity;BMP_temperature;BMP_pressure;BME280_temperature;BME280_humidity;BME280_pressure;Samples;Min_cycle;Max_cycle;Signal;HPM_P1;HPM_P2
2022/01/10 00:00:11;;;;;;;15.65;6.75;;;3.00;99.90;;;;;;6261105;22;20024;-96
2022/01/10 00:02:56;;;;;;;18.58;6.28;;;2.90;99.90;;;;;;6255622;22;20034;-96
2022/01/10 00:05:21;;;;;;;18.48;6.60;;;2.90;99.90;;;;;;6256513;22;20503;-96
2022/01/10 00:07:47;;;;;;;16.42;7.40;;;3.00;99.90;;;;;;6256969;22;20039;-96
2022/01/10 00:10:13;;;;;;;18.00;6.80;;;2.80;99.90;;;;;;6258395;22;20008;-96
2022/01/10 00:12:39;;;;;;;18.55;6.85;;;2.80;99.90;;;;;;6269984;22;20026;-96
2022/01/10 00:15:06;;;;;;;21.27;6.32;;;2.80;99.90;;;;;;6259168;22;20015;-96
2022/01/10 00:17:43;;;;;;;17.38;5.97;;;2.70;99.90;;;;;;6255665;22;20023;-96
2022/01/10 00:20:12;;;;;;;17.77;5.53;;;2.70;99.90;;;;;;6251698;22;20011;-96
2022/01/10 00:22:39;;;;;;;21.02;7.20;;;2.60;99.90;;;;;;6250776;22;20007;-96
2022/01/10 00:25:06;;;;;;;19.65;7.55;;;2.60;99.90;;;;;;6253547;22;20019;-96
2022/01/10 00:27:32;;;;;;;17.35;7.03;;;2.60;99.90;;;;;;6254929;22;20034;-96
2022/01/10 00:29:57;;;;;;;17.98;6.32;;;2.60;99.90;;;;;;6254512;22;20067;-96
2022/01/10 00:32:35;;;;;;;19.92;9.10;;;2.50;99.90;;;;;;6279219;22;20083;-96
2022/01/10 00:35:01;;;;;;;21.50;7.60;;;2.60;99.90;;;;;;6251675;22;20332;-96
2022/01/10 00:37:27;;;;;;;20.42;7.78;;;2.50;99.90;;;;;;6251309;22;20015;-96
2022/01/10 00:39:52;;;;;;;21.73;7.20;;;2.50;99.90;;;;;;6252850;22;20076;-96
2022/01/10 00:42:18;;;;;;;22.52;8.93;;;2.50;99.90;;;;;;6253386;22;20019;-96
2022/01/10 00:44:51;;;;;;;26.23;8.73;;;2.50;99.90;;;;;;6252773;22;20015;-96
2022/01/10 00:47:19;;;;;;;21.52;7.80;;;2.50;99.90;;;;;;6253884;22;20046;-96
2022/01/10 00:49:46;;;;;;;21.80;8.57;;;2.50;99.90;;;;;;6275695;22;20061;-95
2022/01/10 00:52:12;;;;;;;18.88;7.57;;;2.50;99.90;;;;;;6252133;22;20019;-96
2022/01/10 00:54:38;;;;;;;21.83;8.13;;;2.50;99.90;;;;;;6250806;22;20091;-96
2022/01/10 00:57:05;;;;;;;23.75;8.05;;;2.40;99.90;;;;;;6252717;22;20051;-95
2022/01/10 00:59:30;;;;;;;21.88;8.10;;;2.40;99.90;;;;;;6256125;22;20035;-96
2022/01/10 01:02:00;;;;;;;22.60;7.25;;;2.40;99.90;;;;;;6285430;22;20015;-96
2022/01/10 01:04:26;;;;;;;18.48;7.18;;;2.40;99.90;;;;;;6302958;22;20054;-96
2022/01/10 01:06:51;;;;;;;19.58;7.65;;;2.30;99.90;;;;;;6266114;22;20015;-95
2022/01/10 01:09:23;;;;;;;19.45;7.63;;;2.30;99.90;;;;;;6272619;22;20066;-96
2022/01/10 01:14:54;;;;;;;21.63;6.88;;;2.10;99.90;;;;;;6283065;22;20097;-96
2022/01/10 01:17:35;;;;;;;18.48;6.18;;;2.10;99.90;;;;;;6273448;22;20019;-96
2022/01/10 01:20:28;;;;;;;18.90;6.80;;;2.00;99.90;;;;;;6230291;22;20015;-95
2022/01/10 01:25:37;;;;;;;18.52;6.85;;;1.80;99.90;;;;;;6275371;22;20065;-95
2022/01/10 01:28:03;;;;;;;16.60;5.72;;;1.80;99.90;;;;;;6251254;22;20022;-95
2022/01/10 01:30:29;;;;;;;17.15;6.13;;;1.70;99.90;;;;;;6250015;22;20026;-96
2022/01/10 01:33:15;;;;;;;20.30;6.88;;;1.60;99.90;;;;;;6251663;22;20011;-96
2022/01/10 01:35:41;;;;;;;15.18;6.18;;;1.60;99.90;;;;;;6249846;22;20015;-96
2022/01/10 01:38:07;;;;;;;19.17;6.45;;;1.50;99.90;;;;;;6251795;22;20094;-96
2022/01/10 01:40:35;;;;;;;16.77;6.45;;;1.50;99.90;;;;;;6250708;22;20023;-96
2022/01/10 01:43:01;;;;;;;15.23;5.88;;;1.40;99.90;;;;;;6251850;22;20098;-96
2022/01/10 01:45:48;;;;;;;15.80;6.20;;;1.40;99.90;;;;;;6250111;22;20019;-96
2022/01/10 01:48:26;;;;;;;16.73;6.45;;;1.40;99.90;;;;;;6250754;22;20019;-96
2022/01/10 01:50:52;;;;;;;17.67;6.75;;;1.40;99.90;;;;;;6251216;22;20023;-96
2022/01/10 01:53:18;;;;;;;15.02;6.55;;;1.30;99.90;;;;;;6252442;22;20019;-96
2022/01/10 01:55:44;;;;;;;13.98;6.32;;;1.30;99.90;;;;;;6276876;22;20019;-96
2022/01/10 01:58:10;;;;;;;15.95;7.00;;;1.30;99.90;;;;;;6278317;22;20018;-96
2022/01/10 02:00:35;;;;;;;14.13;6.68;;;1.20;99.90;;;;;;6279044;22;20094;-96
2022/01/10 02:03:01;;;;;;;12.57;6.07;;;1.20;99.90;;;;;;6268779;22;20015;-96
2022/01/10 02:05:27;;;;;;;17.27;6.97;;;1.20;99.90;;;;;;6259237;22;20019;-96
2022/01/10 02:07:53;;;;;;;16.50;6.90;;;1.20;99.90;;;;;;6281711;22;20017;-96
2022/01/10 02:10:19;;;;;;;17.77;7.25;;;1.10;99.90;;;;;;6283064;22;20022;-96
2022/01/10 02:12:44;;;;;;;15.20;7.00;;;1.10;99.90;;;;;;6258418;22;20103;-96
2022/01/10 02:15:31;;;;;;;18.92;8.13;;;1.10;99.90;;;;;;6263462;22;20011;-96
2022/01/10 02:18:00;;;;;;;16.60;7.70;;;1.10;99.90;;;;;;6268453;22;20080;-96
2022/01/10 02:20:31;;;;;;;17.13;7.25;;;1.10;99.90;;;;;;6263768;22;20046;-96
2022/01/10 02:22:57;;;;;;;16.48;7.68;;;1.10;99.90;;;;;;6265188;22;20038;-96
2022/01/10 02:25:23;;;;;;;21.90;8.18;;;1.00;99.90;;;;;;6269666;22;20023;-96
2022/01/10 02:27:49;;;;;;;22.92;8.20;;;1.00;99.90;;;;;;6267223;22;20387;-96
2022/01/10 02:30:15;;;;;;;19.75;7.82;;;1.00;99.90;;;;;;6293705;22;20015;-96
2022/01/10 02:32:41;;;;;;;20.92;8.65;;;1.10;99.90;;;;;;6269814;22;20141;-96
2022/01/10 02:35:23;;;;;;;17.52;7.95;;;1.00;99.90;;;;;;6267181;22;20015;-96
2022/01/10 02:37:50;;;;;;;22.20;9.93;;;1.10;99.90;;;;;;6262655;22;20080;-96
2022/01/10 02:40:19;;;;;;;20.83;8.93;;;1.10;99.90;;;;;;6266135;22;20467;-96
2022/01/10 02:42:44;;;;;;;20.08;8.65;;;1.10;99.90;;;;;;6293436;22;20023;-96
2022/01/10 02:45:10;;;;;;;19.25;8.85;;;1.10;99.90;;;;;;6271140;22;20026;-96
2022/01/10 02:47:37;;;;;;;18.45;8.73;;;1.10;99.90;;;;;;6297477;22;20444;-96
2022/01/10 02:50:05;;;;;;;18.83;8.60;;;1.10;99.90;;;;;;6274822;22;20023;-96
2022/01/10 02:52:32;;;;;;;19.92;9.07;;;1.10;99.90;;;;;;6274726;22;20422;-96
2022/01/10 02:55:00;;;;;;;21.48;9.43;;;1.00;99.90;;;;;;6277574;22;20022;-96
2022/01/10 02:57:29;;;;;;;20.25;8.70;;;1.00;99.90;;;;;;6280596;22;20007;-96
2022/01/10 02:59:56;;;;;;;25.67;10.02;;;1.00;99.90;;;;;;6279062;22;20019;-96
2022/01/10 03:02:27;;;;;;;22.45;9.98;;;1.10;99.90;;;;;;6277706;22;20057;-96
2022/01/10 03:04:53;;;;;;;21.80;9.55;;;1.10;99.90;;;;;;6282549;22;20000;-96
2022/01/10 03:07:22;;;;;;;20.98;10.48;;;1.10;99.90;;;;;;6280894;22;19999;-96
2022/01/10 03:09:49;;;;;;;23.10;10.25;;;1.00;99.90;;;;;;6280356;22;20007;-96
2022/01/10 03:12:15;;;;;;;22.27;9.73;;;1.10;99.90;;;;;;6277017;22;20035;-96
2022/01/10 03:14:42;;;;;;;21.20;10.00;;;1.00;99.90;;;;;;6278204;22;20074;-96
2022/01/10 03:17:10;;;;;;;23.00;9.57;;;1.00;99.90;;;;;;6281810;22;20011;-96
2022/01/10 03:19:37;;;;;;;23.33;9.93;;;1.00;99.90;;;;;;6306151;22;20019;-96
2022/01/10 03:22:04;;;;;;;24.17;9.35;;;0.90;99.90;;;;;;6281517;22;20019;-96
2022/01/10 03:24:34;;;;;;;19.77;8.57;;;1.00;99.90;;;;;;6282929;22;20023;-96
2022/01/10 03:44:50;;;;;;;23.02;10.65;;;0.70;99.90;;;;;;6281251;22;20067;-96
2022/01/10 03:47:20;;;;;;;24.83;10.65;;;0.70;99.90;;;;;;6283167;22;20007;-96
2022/01/10 03:49:46;;;;;;;22.90;9.67;;;0.70;99.90;;;;;;6307044;22;20056;-96
2022/01/10 03:52:12;;;;;;;25.27;10.93;;;0.70;99.90;;;;;;6279173;22;20007;-96
2022/01/10 03:54:38;;;;;;;19.27;9.70;;;0.70;99.90;;;;;;6280382;22;20041;-96
2022/01/10 03:57:05;;;;;;;19.20;9.85;;;0.80;99.90;;;;;;6282484;22;20011;-96
2022/01/10 03:59:32;;;;;;;22.08;10.38;;;0.70;99.90;;;;;;6249219;22;20023;-93
2022/01/10 04:02:04;;;;;;;24.55;9.82;;;0.60;99.90;;;;;;6252549;22;20034;-96
2022/01/10 04:04:30;;;;;;;26.92;11.50;;;0.60;99.90;;;;;;6251177;22;20007;-96
2022/01/10 04:06:56;;;;;;;26.30;10.50;;;0.60;99.90;;;;;;6250520;22;20008;-96
2022/01/10 04:09:22;;;;;;;21.15;10.65;;;0.50;99.90;;;;;;6249620;22;20026;-96
2022/01/10 04:11:49;;;;;;;23.83;11.48;;;0.50;99.90;;;;;;6247491;22;20026;-96
2022/01/10 04:14:15;;;;;;;22.48;10.27;;;0.50;99.90;;;;;;6250380;22;20053;-96
2022/01/10 04:16:41;;;;;;;21.85;11.48;;;0.50;99.90;;;;;;6273661;22;20019;-96
2022/01/10 04:19:07;;;;;;;20.85;10.43;;;0.50;99.90;;;;;;6239022;22;20051;-96
2022/01/10 04:21:33;;;;;;;22.63;10.65;;;0.50;99.90;;;;;;6237228;22;20019;-96
2022/01/10 04:23:58;;;;;;;25.42;11.80;;;0.50;99.90;;;;;;6264541;22;20026;-96
2022/01/10 04:26:24;;;;;;;25.42;12.70;;;0.50;99.90;;;;;;6232461;22;20463;-96
2022/01/10 04:28:50;;;;;;;22.42;9.98;;;0.40;99.90;;;;;;6232558;22;20413;-96
2022/01/10 04:31:18;;;;;;;23.23;10.05;;;0.50;99.90;;;;;;6231939;22;20016;-96
2022/01/10 04:33:43;;;;;;;25.33;10.07;;;0.40;99.90;;;;;;6258524;22;20045;-96
2022/01/10 04:36:09;;;;;;;20.90;10.80;;;0.40;99.90;;;;;;6256641;22;20012;-96
2022/01/10 04:38:36;;;;;;;23.33;10.85;;;0.40;99.90;;;;;;6253552;22;20513;-96
2022/01/10 04:41:04;;;;;;;22.85;10.25;;;0.30;99.90;;;;;;6227893;22;20023;-96
2022/01/10 04:43:30;;;;;;;24.13;10.77;;;0.30;99.90;;;;;;6229636;22;20055;-96
2022/01/10 04:45:56;;;;;;;23.08;10.85;;;0.30;99.90;;;;;;6255922;22;20356;-96
2022/01/10 04:48:22;;;;;;;24.10;10.73;;;0.20;99.90;;;;;;6233613;22;20016;-96
2022/01/10 04:53:27;;;;;;;24.05;11.13;;;0.20;99.90;;;;;;6274851;22;20012;-96
2022/01/10 04:55:52;;;;;;;17.98;10.15;;;0.20;99.90;;;;;;6240240;22;20054;-96
2022/01/10 04:58:18;;;;;;;24.40;10.48;;;0.20;99.90;;;;;;6237821;22;20016;-96
2022/01/10 05:00:44;;;;;;;25.20;11.32;;;0.20;99.90;;;;;;6271811;22;20397;-96
2022/01/10 05:03:10;;;;;;;23.70;11.68;;;0.20;99.90;;;;;;6256851;22;20022;-96
2022/01/10 05:05:35;;;;;;;21.73;10.90;;;0.10;99.90;;;;;;6280426;22;20020;-96
2022/01/10 05:08:01;;;;;;;22.88;12.05;;;0.10;99.90;;;;;;6253674;22;20067;-96
2022/01/10 05:10:27;;;;;;;21.65;11.07;;;0.20;99.90;;;;;;6250940;22;20417;-96
2022/01/10 05:12:52;;;;;;;25.67;11.13;;;0.10;99.90;;;;;;6275998;22;20016;-96
2022/01/10 05:15:18;;;;;;;24.48;11.25;;;0.10;99.90;;;;;;6250344;22;20053;-96
2022/01/10 05:17:44;;;;;;;25.90;12.35;;;0.10;99.90;;;;;;6251221;22;20169;-96
2022/01/10 05:20:10;;;;;;;21.67;11.68;;;0.10;99.90;;;;;;6256084;22;20015;-96
2022/01/10 05:22:36;;;;;;;21.95;11.48;;;0.10;99.90;;;;;;6278914;22;20043;-96
2022/01/10 05:25:02;;;;;;;22.08;10.93;;;0.10;99.90;;;;;;6275656;22;20012;-96
2022/01/10 05:27:28;;;;;;;22.83;10.75;;;0.10;99.90;;;;;;6272862;22;20016;-96
2022/01/10 05:29:54;;;;;;;24.95;12.63;;;0.00;99.90;;;;;;6246850;22;20108;-96
2022/01/10 05:32:19;;;;;;;18.48;11.05;;;0.00;99.90;;;;;;6246776;22;20012;-96
2022/01/10 05:34:45;;;;;;;20.42;11.05;;;0.00;99.90;;;;;;6246042;22;20023;-95
2022/01/10 05:37:11;;;;;;;26.15;11.10;;;0.00;99.90;;;;;;6246039;22;20011;-95
2022/01/10 05:39:36;;;;;;;23.05;11.32;;;0.00;99.90;;;;;;6244503;22;20024;-96
2022/01/10 05:42:02;;;;;;;25.80;10.65;;;0.00;99.90;;;;;;6271280;22;20027;-94
2022/01/10 05:44:28;;;;;;;22.27;11.38;;;0.00;99.90;;;;;;6271809;22;20019;-94
2022/01/10 05:46:54;;;;;;;27.63;13.25;;;0.00;99.90;;;;;;6245631;22;20027;-93
2022/01/10 05:49:26;;;;;;;22.98;11.70;;;0.00;99.90;;;;;;6246097;22;20404;-94
2022/01/10 05:51:52;;;;;;;24.65;12.23;;;0.10;99.90;;;;;;6251630;22;20484;-94
2022/01/10 05:54:17;;;;;;;23.42;11.30;;;0.00;99.90;;;;;;6249408;22;20019;-94
2022/01/10 05:56:43;;;;;;;23.42;11.57;;;0.00;99.90;;;;;;6243789;22;20022;-94
2022/01/10 05:59:08;;;;;;;23.92;12.40;;;0.00;99.90;;;;;;6245820;22;20020;-95
2022/01/10 06:01:34;;;;;;;21.95;10.93;;;0.10;99.90;;;;;;6244164;22;20024;-94
2022/01/10 06:04:00;;;;;;;23.65;11.32;;;0.00;99.90;;;;;;6245142;22;20019;-94
2022/01/10 06:06:25;;;;;;;23.50;10.98;;;-0.10;99.90;;;;;;6245126;22;20077;-93
2022/01/10 06:08:51;;;;;;;25.10;12.23;;;-0.10;99.90;;;;;;6243618;22;20077;-92
2022/01/10 06:11:17;;;;;;;23.27;11.82;;;-0.20;99.90;;;;;;6269918;22;20012;-93
2022/01/10 06:13:42;;;;;;;23.67;11.38;;;-0.10;99.90;;;;;;6245200;22;20424;-92
2022/01/10 06:16:08;;;;;;;19.52;11.73;;;-0.10;99.90;;;;;;6254440;22;20012;-92
2022/01/10 06:18:34;;;;;;;21.27;11.15;;;-0.10;99.90;;;;;;6270997;22;20023;-92
2022/01/10 06:20:59;;;;;;;24.05;11.75;;;-0.10;99.90;;;;;;6250925;22;20067;-92
2022/01/10 06:23:25;;;;;;;22.13;11.07;;;-0.20;99.90;;;;;;6291992;22;20008;-92
2022/01/10 06:25:51;;;;;;;23.33;12.35;;;-0.20;99.90;;;;;;6292088;22;20081;-92
2022/01/10 06:28:18;;;;;;;25.05;13.10;;;-0.20;99.90;;;;;;6274341;22;20011;-93
2022/01/10 06:30:44;;;;;;;26.35;13.82;;;-0.20;99.90;;;;;;6241672;22;20126;-93
2022/01/10 06:33:10;;;;;;;24.83;12.18;;;-0.20;99.90;;;;;;6244257;22;20058;-96
2022/01/10 06:35:36;;;;;;;27.08;12.23;;;-0.20;99.90;;;;;;6276042;22;20019;-93
2022/01/10 06:38:03;;;;;;;22.27;11.10;;;-0.20;99.90;;;;;;6270743;22;20016;-94
2022/01/10 06:40:28;;;;;;;24.73;13.13;;;-0.20;99.90;;;;;;6244858;22;20022;-91
2022/01/10 06:42:54;;;;;;;26.92;13.10;;;-0.20;99.90;;;;;;6269168;22;20012;-95
2022/01/10 06:45:20;;;;;;;28.45;13.48;;;-0.20;99.90;;;;;;6245622;22;20090;-96
2022/01/10 06:47:46;;;;;;;27.13;14.10;;;-0.20;99.90;;;;;;6244723;22;20011;-95
2022/01/10 06:50:11;;;;;;;28.75;14.60;;;-0.10;99.90;;;;;;6247955;22;20093;-94
2022/01/10 06:52:37;;;;;;;25.90;14.27;;;-0.20;99.90;;;;;;6268879;22;20012;-94
2022/01/10 06:55:03;;;;;;;23.42;12.95;;;-0.20;99.90;;;;;;6246916;22;20011;-93
2022/01/10 06:57:29;;;;;;;27.92;14.63;;;-0.20;99.90;;;;;;6245428;22;20016;-96
2022/01/10 06:59:55;;;;;;;23.13;12.93;;;-0.30;99.90;;;;;;6244922;22;20506;-94
2022/01/10 07:02:20;;;;;;;24.15;13.23;;;-0.30;99.90;;;;;;6245024;22;20027;-94
2022/01/10 07:04:46;;;;;;;22.33;12.00;;;-0.30;99.90;;;;;;6241865;22;20011;-96
2022/01/10 07:07:12;;;;;;;24.95;12.77;;;-0.30;99.90;;;;;;6243349;22;20090;-93
2022/01/10 07:09:38;;;;;;;25.75;12.30;;;-0.30;99.90;;;;;;6242449;22;20016;-94
2022/01/10 07:12:04;;;;;;;28.52;14.45;;;-0.40;99.90;;;;;;6245541;22;20314;-96
2022/01/10 07:14:32;;;;;;;30.20;15.05;;;-0.30;99.90;;;;;;6254620;22;20043;-96
2022/01/10 07:16:58;;;;;;;22.00;12.77;;;-0.30;99.90;;;;;;6245592;22;20015;-96
2022/01/10 07:19:24;;;;;;;22.10;12.57;;;-0.40;99.90;;;;;;6248575;22;20038;-96
2022/01/10 07:21:50;;;;;;;26.55;14.45;;;-0.30;99.90;;;;;;6245505;22;20016;-95
2022/01/10 07:24:16;;;;;;;28.08;14.13;;;-0.40;99.90;;;;;;6244876;22;20157;-94
2022/01/10 07:26:42;;;;;;;30.92;15.82;;;-0.40;99.90;;;;;;6269757;22;20023;-95
2022/01/10 07:29:08;;;;;;;23.58;12.60;;;-0.40;99.90;;;;;;6246102;22;20019;-96
2022/01/10 07:31:35;;;;;;;26.50;14.77;;;-0.40;99.90;;;;;;6243886;22;20011;-94
2022/01/10 07:34:02;;;;;;;25.35;13.98;;;-0.40;99.90;;;;;;6245143;22;20393;-93
2022/01/10 07:36:28;;;;;;;26.98;15.35;;;-0.30;99.90;;;;;;6243597;22;20015;-94
2022/01/10 07:38:54;;;;;;;26.45;14.52;;;-0.40;99.90;;;;;;6249188;22;20026;-96
2022/01/10 07:41:20;;;;;;;27.05;17.13;;;-0.40;99.90;;;;;;6247549;22;20165;-94
2022/01/10 07:43:45;;;;;;;29.13;16.73;;;-0.40;99.90;;;;;;6259328;22;20020;-96
2022/01/10 07:46:11;;;;;;;29.13;14.98;;;-0.40;99.90;;;;;;6293155;22;20012;-96
2022/01/10 07:48:40;;;;;;;25.67;14.43;;;-0.40;99.90;;;;;;6291076;22;20012;-93
2022/01/10 07:51:09;;;;;;;24.00;14.20;;;-0.40;99.90;;;;;;6292147;22;20091;-92
2022/01/10 07:53:36;;;;;;;26.80;15.30;;;-0.40;99.90;;;;;;6269053;22;20043;-94
2022/01/10 07:56:03;;;;;;;26.30;14.45;;;-0.40;99.90;;;;;;6252520;22;20016;-93
2022/01/10 07:58:28;;;;;;;27.90;16.08;;;-0.40;99.90;;;;;;6275021;22;20043;-94
2022/01/10 08:00:54;;;;;;;27.90;15.68;;;-0.40;99.90;;;;;;6248317;22;20024;-92
2022/01/10 08:03:20;;;;;;;23.55;14.50;;;-0.40;99.90;;;;;;6247564;22;20023;-91
2022/01/10 08:05:45;;;;;;;26.73;14.38;;;-0.40;99.90;;;;;;6246026;22;20066;-92
2022/01/10 08:08:11;;;;;;;26.73;14.40;;;-0.40;99.90;;;;;;6272537;22;20310;-92
2022/01/10 08:10:37;;;;;;;27.92;15.00;;;-0.40;99.90;;;;;;6246362;22;20103;-91
2022/01/10 08:13:03;;;;;;;27.83;14.73;;;-0.40;99.90;;;;;;6246248;22;20023;-92
2022/01/10 08:15:30;;;;;;;25.23;13.98;;;-0.40;99.90;;;;;;6244879;22;20016;-92
2022/01/10 08:17:57;;;;;;;26.90;15.00;;;-0.40;99.90;;;;;;6245092;22;20078;-90
2022/01/10 08:20:23;;;;;;;30.48;15.98;;;-0.40;99.90;;;;;;6241934;22;20041;-89
2022/01/10 08:22:48;;;;;;;24.58;14.20;;;-0.40;99.90;;;;;;6267668;22;20423;-90
2022/01/10 08:25:14;;;;;;;28.08;16.15;;;-0.30;99.90;;;;;;6244579;22;20325;-91
2022/01/10 08:27:40;;;;;;;29.52;15.90;;;-0.30;99.90;;;;;;6268316;22;20015;-89
2022/01/10 08:30:06;;;;;;;27.95;15.85;;;-0.30;99.90;;;;;;6269251;22;20020;-93
2022/01/10 08:32:32;;;;;;;28.40;16.90;;;-0.30;99.90;;;;;;6268520;22;20056;-90
2022/01/10 08:34:58;;;;;;;27.77;14.27;;;-0.30;99.90;;;;;;6243422;22;20091;-90
2022/01/10 08:37:23;;;;;;;26.55;15.23;;;-0.30;99.90;;;;;;6244174;22;20090;-91
2022/01/10 08:39:51;;;;;;;24.80;18.27;;;-0.30;99.90;;;;;;6242447;22;20020;-89
2022/01/10 08:42:19;;;;;;;25.90;17.88;;;-0.20;99.90;;;;;;6269903;22;20068;-90
2022/01/10 08:44:45;;;;;;;26.08;15.50;;;-0.20;99.90;;;;;;6245262;22;20126;-90
2022/01/10 08:47:10;;;;;;;26.17;16.80;;;-0.10;99.90;;;;;;6271089;22;20060;-91
2022/01/10 08:49:36;;;;;;;28.75;16.67;;;-0.10;99.90;;;;;;6245116;22;20435;-92
2022/01/10 08:52:03;;;;;;;24.05;15.65;;;-0.20;99.90;;;;;;6251305;22;20022;-94
2022/01/10 08:54:29;;;;;;;28.13;16.60;;;-0.10;99.90;;;;;;6266686;22;20027;-91
2022/01/10 08:56:55;;;;;;;25.55;15.32;;;0.00;99.90;;;;;;6249638;22;20474;-93
2022/01/10 08:59:22;;;;;;;24.85;14.93;;;-0.10;99.90;;;;;;6274336;22;20042;-96
2022/01/10 09:01:48;;;;;;;27.00;16.65;;;-0.10;99.90;;;;;;6259900;22;20030;-93
2022/01/10 09:04:17;;;;;;;29.90;17.42;;;0.00;99.90;;;;;;6299024;22;20008;-95
2022/01/10 09:06:51;;;;;;;33.88;19.55;;;0.00;99.90;;;;;;6268033;22;20015;-94
2022/01/10 09:09:18;;;;;;;35.92;19.42;;;0.10;99.90;;;;;;6270915;22;20014;-93
2022/01/10 09:11:44;;;;;;;32.45;20.58;;;0.10;99.90;;;;;;6293144;22;20182;-93
2022/01/10 09:14:10;;;;;;;30.98;19.58;;;0.20;99.90;;;;;;6274724;22;20024;-93
2022/01/10 09:16:37;;;;;;;35.70;21.25;;;0.20;99.90;;;;;;6245011;22;20027;-93
2022/01/10 09:19:03;;;;;;;32.85;20.90;;;0.30;99.90;;;;;;6240971;22;20027;-93
2022/01/10 09:21:29;;;;;;;44.47;23.67;;;0.30;99.90;;;;;;6269484;22;20341;-95
2022/01/10 09:23:56;;;;;;;45.55;26.02;;;0.40;99.90;;;;;;6243575;22;20023;-94
2022/01/10 09:26:22;;;;;;;35.65;21.13;;;0.50;99.90;;;;;;6244920;22;20090;-93
2022/01/10 09:28:48;;;;;;;36.05;22.38;;;0.50;99.90;;;;;;6242056;22;20011;-91
2022/01/10 09:31:14;;;;;;;36.92;23.30;;;0.60;99.90;;;;;;6244791;22;20022;-92
2022/01/10 09:33:41;;;;;;;33.30;21.27;;;0.60;99.90;;;;;;6268860;22;20283;-92
2022/01/10 09:36:06;;;;;;;35.28;21.30;;;0.60;99.90;;;;;;6243251;22;20055;-92
2022/01/10 09:38:32;;;;;;;40.17;22.65;;;0.70;99.90;;;;;;6243342;22;20066;-91
2022/01/10 09:40:58;;;;;;;41.30;22.02;;;0.70;99.90;;;;;;6243828;22;20020;-92
2022/01/10 09:43:24;;;;;;;35.88;21.67;;;0.70;99.90;;;;;;6243815;22;20012;-90
2022/01/10 09:45:56;;;;;;;35.88;23.70;;;0.80;99.90;;;;;;6269554;22;20764;-94
2022/01/10 09:48:22;;;;;;;40.28;22.98;;;0.80;99.90;;;;;;6242764;22;20016;-91
2022/01/10 09:50:48;;;;;;;44.10;24.50;;;0.80;99.90;;;;;;6242288;22;20065;-91
2022/01/10 09:53:17;;;;;;;43.10;24.65;;;0.90;99.90;;;;;;6243046;22;20016;-92
2022/01/10 09:55:43;;;;;;;45.15;24.90;;;0.90;99.90;;;;;;6243303;22;20023;-92
2022/01/10 09:58:09;;;;;;;46.63;27.02;;;1.10;99.90;;;;;;6269658;22;20016;-94
2022/01/10 10:00:35;;;;;;;47.90;25.35;;;1.00;99.90;;;;;;6241594;22;20020;-89
2022/01/10 10:03:02;;;;;;;49.53;25.30;;;1.10;99.90;;;;;;6269000;22;20406;-92
2022/01/10 10:05:29;;;;;;;47.92;25.13;;;1.10;99.90;;;;;;6244274;22;20463;-91
2022/01/10 10:07:54;;;;;;;51.60;27.08;;;1.20;99.90;;;;;;6243925;22;20110;-90
2022/01/10 10:10:21;;;;;;;51.42;29.35;;;1.20;99.90;;;;;;6265444;22;20043;-91
2022/01/10 10:12:49;;;;;;;43.85;26.27;;;1.30;99.90;;;;;;6239814;22;20077;-89
2022/01/10 10:15:19;;;;;;;39.45;25.33;;;1.30;99.90;;;;;;6264507;22;20058;-90
2022/01/10 10:17:46;;;;;;;46.88;26.48;;;1.30;99.90;;;;;;6265332;22;20024;-91
2022/01/10 10:20:21;;;;;;;42.15;23.92;;;1.40;99.90;;;;;;6268571;22;20036;-93
2022/01/10 10:22:48;;;;;;;46.03;25.73;;;1.40;99.90;;;;;;6268091;22;20364;-95
2022/01/10 10:25:14;;;;;;;43.13;26.90;;;1.50;99.90;;;;;;6243880;22;20031;-94
2022/01/10 10:27:45;;;;;;;42.40;25.15;;;1.60;99.90;;;;;;6268153;22;20012;-93
2022/01/10 10:30:18;;;;;;;41.25;25.08;;;1.50;99.90;;;;;;6242669;22;20038;-92
2022/01/10 10:32:44;;;;;;;40.05;24.15;;;1.60;99.90;;;;;;6242892;22;20347;-95
2022/01/10 10:35:11;;;;;;;39.47;26.17;;;1.60;99.90;;;;;;6243030;22;20051;-94
2022/01/10 10:37:38;;;;;;;38.90;25.60;;;1.70;99.90;;;;;;6241767;22;20046;-90
2022/01/10 10:40:09;;;;;;;45.00;26.02;;;1.70;99.90;;;;;;6269187;22;20097;-90
2022/01/10 10:42:37;;;;;;;42.50;27.37;;;1.70;99.90;;;;;;6241980;22;20023;-91
2022/01/10 10:45:06;;;;;;;41.67;25.75;;;1.70;99.90;;;;;;6243885;22;20026;-91
2022/01/10 10:47:33;;;;;;;44.22;26.65;;;1.80;99.90;;;;;;6241349;22;20099;-90
2022/01/10 10:50:07;;;;;;;43.95;28.33;;;1.90;99.90;;;;;;6243827;22;20321;-93
2022/01/10 10:52:34;;;;;;;48.17;27.27;;;1.90;99.90;;;;;;6245915;22;20115;-93
2022/01/10 10:55:14;;;;;;;44.60;28.10;;;2.00;99.90;;;;;;6248308;22;20019;-91
2022/01/10 10:57:41;;;;;;;42.15;27.42;;;2.00;99.90;;;;;;6247439;22;20015;-91
2022/01/10 11:00:10;;;;;;;45.83;27.90;;;2.10;99.90;;;;;;6249382;22;20019;-89
2022/01/10 11:02:38;;;;;;;41.50;26.08;;;2.10;99.90;;;;;;6247112;22;20038;-90
2022/01/10 11:05:06;;;;;;;46.38;29.65;;;2.10;99.90;;;;;;6273073;22;20466;-89
2022/01/10 11:07:34;;;;;;;47.58;31.35;;;2.20;99.90;;;;;;6246703;22;20007;-90
2022/01/10 11:10:07;;;;;;;48.92;29.08;;;2.20;99.90;;;;;;6276379;22;20080;-90
2022/01/10 11:12:38;;;;;;;49.83;31.15;;;2.30;99.90;;;;;;6246209;22;20348;-91
2022/01/10 11:15:04;;;;;;;44.97;27.45;;;2.40;99.90;;;;;;6270254;22;20038;-95
2022/01/10 11:17:31;;;;;;;46.35;30.50;;;2.50;99.90;;;;;;6273660;22;20011;-93
2022/01/10 11:20:25;;;;;;;45.13;28.58;;;2.50;99.90;;;;;;6274029;22;20023;-95
2022/01/10 11:23:01;;;;;;;52.90;31.42;;;2.60;99.90;;;;;;6250903;22;20137;-92
2022/01/10 11:25:32;;;;;;;44.08;29.05;;;2.60;99.90;;;;;;6248682;22;20098;-93
2022/01/10 11:28:23;;;;;;;44.13;27.90;;;2.70;99.90;;;;;;6247642;22;20023;-94
2022/01/10 11:30:53;;;;;;;40.38;29.05;;;2.70;99.90;;;;;;6246111;22;20413;-92
2022/01/10 11:33:26;;;;;;;47.55;30.20;;;2.80;99.90;;;;;;6247880;22;20018;-93
2022/01/10 11:35:57;;;;;;;49.80;31.30;;;2.90;99.90;;;;;;6274888;22;20007;-95
2022/01/10 11:38:29;;;;;;;50.47;30.25;;;3.00;99.90;;;;;;6250063;22;20011;-94
2022/01/10 11:41:16;;;;;;;48.05;30.88;;;3.00;99.90;;;;;;6249249;22;20033;-96
2022/01/10 11:43:57;;;;;;;50.72;31.58;;;3.10;99.90;;;;;;6248913;22;20034;-94
2022/01/10 11:46:45;;;;;;;46.22;32.63;;;3.10;99.90;;;;;;6248144;22;20495;-96
2022/01/10 11:49:22;;;;;;;43.65;30.52;;;3.20;99.90;;;;;;6250597;22;20030;-95
2022/01/10 11:51:50;;;;;;;48.03;30.95;;;3.20;99.90;;;;;;6248921;22;20065;-92
2022/01/10 11:54:26;;;;;;;49.88;32.67;;;3.30;99.90;;;;;;6262226;22;20007;-92
2022/01/10 11:57:05;;;;;;;51.38;35.58;;;3.40;99.90;;;;;;6275492;22;20007;-92
2022/01/10 11:59:31;;;;;;;48.20;34.08;;;3.50;99.90;;;;;;6266799;22;20059;-95
2022/01/10 12:02:04;;;;;;;47.92;31.42;;;3.60;99.90;;;;;;6294708;22;20325;-93
2022/01/10 12:04:35;;;;;;;47.80;31.80;;;3.70;99.90;;;;;;6259416;22;20344;-93
2022/01/10 12:07:02;;;;;;;45.75;32.28;;;3.80;99.90;;;;;;6252279;22;20011;-95
2022/01/10 12:09:28;;;;;;;45.08;32.95;;;3.80;99.90;;;;;;6278661;22;20015;-95
2022/01/10 12:11:56;;;;;;;40.42;30.88;;;3.90;99.90;;;;;;6276370;22;20026;-95
2022/01/10 12:14:22;;;;;;;45.25;32.20;;;3.90;99.90;;;;;;6250354;22;20034;-95
2022/01/10 12:16:49;;;;;;;40.03;32.15;;;3.90;99.90;;;;;;6250999;22;20015;-95
2022/01/10 12:19:16;;;;;;;40.58;29.73;;;4.00;99.90;;;;;;6250356;22;20019;-95
2022/01/10 12:21:42;;;;;;;38.13;29.02;;;4.10;99.90;;;;;;6248800;22;20011;-94
2022/01/10 12:24:08;;;;;;;37.28;30.48;;;4.10;99.90;;;;;;6271803;22;20339;-94
2022/01/10 12:26:35;;;;;;;39.03;29.63;;;4.10;99.90;;;;;;6250746;22;20042;-96
2022/01/10 12:29:02;;;;;;;38.25;31.55;;;4.00;99.90;;;;;;6278771;22;20514;-95
2022/01/10 12:31:30;;;;;;;40.15;30.38;;;4.20;99.90;;;;;;6275715;22;20486;-96
2022/01/10 12:33:57;;;;;;;38.30;31.55;;;4.20;99.90;;;;;;6276616;22;20019;-94
2022/01/10 12:36:24;;;;;;;38.72;32.92;;;4.30;99.90;;;;;;6250819;22;20434;-95
2022/01/10 12:39:00;;;;;;;36.67;29.17;;;4.30;99.90;;;;;;6250167;22;20015;-96
2022/01/10 12:41:27;;;;;;;39.70;31.02;;;4.40;99.90;;;;;;6248479;22;20015;-94
2022/01/10 12:43:53;;;;;;;38.15;30.85;;;4.40;99.90;;;;;;6275444;22;20015;-94
2022/01/10 12:46:21;;;;;;;39.88;31.40;;;4.40;99.90;;;;;;6258935;22;20049;-96
2022/01/10 12:49:02;;;;;;;38.50;31.98;;;4.40;99.90;;;;;;6283140;22;20105;-96
2022/01/10 12:51:32;;;;;;;38.75;28.85;;;4.40;99.90;;;;;;6257447;22;20100;-96
2022/01/10 12:53:57;;;;;;;41.75;31.17;;;4.40;99.90;;;;;;6259276;22;20137;-96
2022/01/10 12:56:23;;;;;;;37.03;29.10;;;4.50;99.90;;;;;;6254012;22;20375;-96
2022/01/10 12:58:50;;;;;;;37.58;30.85;;;4.50;99.90;;;;;;6283338;22;20019;-96
2022/01/10 13:01:18;;;;;;;39.03;30.88;;;4.50;99.90;;;;;;6252807;22;20007;-96
2022/01/10 13:03:56;;;;;;;41.42;31.58;;;4.60;99.90;;;;;;6253747;22;20020;-96
2022/01/10 13:06:25;;;;;;;37.42;31.90;;;4.60;99.90;;;;;;6256428;22;20022;-96